Time;durP1;ratioP1;P1;durP2;ratioP2;P2;SDS_P1;SDS_P2;PMS_P1;PMS_P2;Temp;Humidity;BMP_temperature;BMP_pressure;BME280_temperature;BME280_humidity;BME280_pressure;Samples;Min_cycle;Max_cycle;Signal;HPM_P1;HPM_P2
2022/03/07 07:11:33;;;;;;;;;;;21.30;26.80;;;;;;468137;254;2527;-39
2022/03/07 07:13:34;;;;;;;;;;;21.20;26.80;;;;;;468356;254;1257;-39
2022/03/07 07:15:36;;;;;;;;;;;21.30;26.80;;;;;;468451;254;1154;-39
2022/03/07 07:17:37;;;;;;;;;;;21.30;26.80;;;;;;468342;254;2203;-39
2022/03/07 07:19:38;;;;;;;;;;;21.30;26.80;;;;;;468504;254;1108;-39
2022/03/07 07:21:40;;;;;;;;;;;21.30;26.70;;;;;;468528;254;1328;-39
2022/03/07 07:23:41;;;;;;;;;;;21.40;26.80;;;;;;468538;254;1102;-39
2022/03/07 07:25:42;;;;;;;;;;;21.40;26.70;;;;;;468338;254;1415;-39
2022/03/07 07:27:44;;;;;;;;;;;21.40;26.70;;;;;;468311;254;1377;-39
2022/03/07 07:29:45;;;;;;;;;;;21.40;26.70;;;;;;468308;254;1262;-39
2022/03/07 07:31:47;;;;;;;;;;;21.40;26.70;;;;;;468372;254;1267;-39
2022/03/07 07:33:48;;;;;;;;;;;21.30;26.70;;;;;;468313;254;1142;-39
2022/03/07 07:35:49;;;;;;;;;;;21.30;26.70;;;;;;468354;254;1421;-39
2022/03/07 07:37:51;;;;;;;;;;;21.40;26.70;;;;;;468331;254;2187;-39
2022/03/07 07:39:52;;;;;;;;;;;21.30;26.70;;;;;;468336;254;1219;-39
2022/03/07 07:41:55;;;;;;;;;;;21.30;26.70;;;;;;468154;254;1362;-39
2022/03/07 07:43:55;;;;;;;;;;;21.30;26.70;;;;;;468143;254;2027;-39
2022/03/07 07:45:56;;;;;;;;;;;21.30;26.70;;;;;;468087;254;1422;-39
2022/03/07 07:47:59;;;;;;;;;;;21.30;26.70;;;;;;468067;254;1352;-39
2022/03/07 07:50:00;;;;;;;;;;;21.20;26.60;;;;;;468141;254;1472;-39
2022/03/07 07:52:02;;;;;;;;;;;21.30;26.70;;;;;;468165;254;1316;-39
2022/03/07 07:54:02;;;;;;;;;;;21.20;26.60;;;;;;468143;254;2098;-39
2022/03/07 07:56:04;;;;;;;;;;;21.20;26.60;;;;;;468121;254;1188;-39
2022/03/07 07:58:05;;;;;;;;;;;21.20;26.60;;;;;;468266;254;2204;-39
2022/03/07 08:00:06;;;;;;;;;;;21.20;26.60;;;;;;468237;254;1144;-39
2022/03/07 08:02:08;;;;;;;;;;;21.30;26.60;;;;;;468150;250;1357;-39
2022/03/07 08:04:09;;;;;;;;;;;21.20;26.60;;;;;;468357;254;1268;-39
2022/03/07 08:06:10;;;;;;;;;;;21.20;26.60;;;;;;468067;254;1125;-39
2022/03/07 08:08:11;;;;;;;;;;;21.20;26.50;;;;;;467958;254;1080;-39
2022/03/07 08:10:13;;;;;;;;;;;21.20;26.50;;;;;;468164;254;1302;-39
2022/03/07 08:12:17;;;;;;;;;;;21.20;26.50;;;;;;468278;254;1088;-39
2022/03/07 08:14:16;;;;;;;;;;;21.20;26.50;;;;;;468184;254;2201;-39
2022/03/07 08:16:18;;;;;;;;;;;21.30;26.50;;;;;;468233;254;1434;-39
2022/03/07 08:18:18;;;;;;;;;;;21.20;26.50;;;;;;468306;254;2187;-39
2022/03/07 08:20:20;;;;;;;;;;;21.20;26.50;;;;;;468172;254;1099;-39
2022/03/07 08:22:21;;;;;;;;;;;21.20;26.50;;;;;;468145;254;1089;-39
2022/03/07 08:24:23;;;;;;;;;;;21.20;26.50;;;;;;468133;254;1103;-39
2022/03/07 08:26:24;;;;;;;;;;;21.20;26.40;;;;;;468042;254;1357;-39
2022/03/07 08:28:25;;;;;;;;;;;21.20;26.40;;;;;;468128;254;1155;-39
2022/03/07 08:30:27;;;;;;;;;;;21.20;26.40;;;;;;468207;254;1184;-39
2022/03/07 08:32:28;;;;;;;;;;;21.20;26.40;;;;;;468141;254;1101;-39
2022/03/07 08:34:29;;;;;;;;;;;21.20;26.30;;;;;;468130;254;1255;-39
2022/03/07 08:36:31;;;;;;;;;;;21.20;26.40;;;;;;468067;254;1145;-39
2022/03/07 08:38:32;;;;;;;;;;;21.20;26.30;;;;;;468149;254;2129;-39
2022/03/07 08:40:33;;;;;;;;;;;21.20;26.30;;;;;;468075;254;1296;-39
2022/03/07 08:42:35;;;;;;;;;;;21.20;26.30;;;;;;468046;254;2340;-39
2022/03/07 08:44:36;;;;;;;;;;;21.20;26.30;;;;;;468071;254;1355;-39
2022/03/07 08:46:39;;;;;;;;;;;21.20;26.30;;;;;;468054;254;1328;-39
2022/03/07 08:48:39;;;;;;;;;;;21.20;26.30;;;;;;468193;254;1306;-39
2022/03/07 08:50:40;;;;;;;;;;;21.20;26.20;;;;;;468353;254;1483;-39
2022/03/07 08:52:41;;;;;;;;;;;21.30;26.30;;;;;;468067;254;1243;-39
2022/03/07 08:54:43;;;;;;;;;;;21.20;26.30;;;;;;467937;254;1112;-39
2022/03/07 08:56:44;;;;;;;;;;;21.20;26.30;;;;;;467972;254;1257;-39
2022/03/07 08:58:46;;;;;;;;;;;21.20;26.30;;;;;;468114;254;2211;-39
2022/03/07 09:00:47;;;;;;;;;;;21.20;26.30;;;;;;468066;254;1264;-39
2022/03/07 09:02:48;;;;;;;;;;;21.20;26.20;;;;;;468194;254;1085;-39
2022/03/07 09:04:50;;;;;;;;;;;21.20;26.20;;;;;;468053;254;1192;-39
2022/03/07 09:06:51;;;;;;;;;;;21.20;26.20;;;;;;467173;254;1264;-39
2022/03/07 09:08:52;;;;;;;;;;;21.30;26.20;;;;;;468411;254;1037;-39
2022/03/07 09:10:53;;;;;;;;;;;21.20;26.30;;;;;;467988;254;1263;-39
2022/03/07 09:12:55;;;;;;;;;;;21.20;26.20;;;;;;467280;254;1508;-39
2022/03/07 09:14:56;;;;;;;;;;;21.20;26.20;;;;;;468056;254;1147;-39
2022/03/07 09:16:57;;;;;;;;;;;21.20;26.20;;;;;;468100;254;1196;-39
2022/03/07 09:18:59;;;;;;;;;;;21.20;26.20;;;;;;468132;254;2200;-39
2022/03/07 09:21:01;;;;;;;;;;;21.20;26.20;;;;;;467967;254;1123;-39
2022/03/07 09:23:01;;;;;;;;;;;21.20;26.20;;;;;;468122;254;2254;-39
2022/03/07 09:25:03;;;;;;;;;;;21.20;26.10;;;;;;468062;254;1132;-39
2022/03/07 09:27:04;;;;;;;;;;;21.20;26.10;;;;;;467821;254;1212;-39
2022/03/07 09:29:05;;;;;;;;;;;21.20;26.10;;;;;;467896;254;1234;-39
2022/03/07 09:31:07;;;;;;;;;;;21.20;26.20;;;;;;467950;254;1125;-39
2022/03/07 09:33:08;;;;;;;;;;;21.20;26.20;;;;;;467982;254;1249;-39
2022/03/07 09:35:09;;;;;;;;;;;21.20;26.20;;;;;;467994;254;1139;-39
2022/03/07 09:37:11;;;;;;;;;;;21.30;26.20;;;;;;467865;254;1087;-39
2022/03/07 09:39:12;;;;;;;;;;;21.30;26.10;;;;;;467863;254;2196;-39
2022/03/07 09:41:13;;;;;;;;;;;21.20;26.10;;;;;;468031;254;1205;-39
2022/03/07 09:43:14;;;;;;;;;;;21.20;26.10;;;;;;467965;254;1179;-39
2022/03/07 09:45:16;;;;;;;;;;;21.20;26.10;;;;;;468096;254;1119;-39
2022/03/07 09:47:17;;;;;;;;;;;21.20;26.10;;;;;;468166;254;1148;-39
2022/03/07 09:49:19;;;;;;;;;;;21.20;26.10;;;;;;468205;254;1130;-39
2022/03/07 09:51:20;;;;;;;;;;;21.20;26.10;;;;;;467921;254;1143;-39
2022/03/07 09:53:21;;;;;;;;;;;21.20;26.10;;;;;;468026;254;1106;-39
2022/03/07 09:55:23;;;;;;;;;;;21.20;26.10;;;;;;468207;254;1097;-39
2022/03/07 09:57:24;;;;;;;;;;;21.20;26.10;;;;;;468101;254;1244;-39
2022/03/07 09:59:25;;;;;;;;;;;21.20;26.10;;;;;;468137;254;2168;-39
2022/03/07 10:01:27;;;;;;;;;;;21.20;26.10;;;;;;467937;254;1206;-39
2022/03/07 10:03:28;;;;;;;;;;;21.20;26.10;;;;;;467922;254;1137;-39
2022/03/07 10:05:29;;;;;;;;;;;21.20;26.00;;;;;;467822;254;1181;-39
2022/03/07 10:07:30;;;;;;;;;;;21.20;26.10;;;;;;467863;254;1101;-39
2022/03/07 10:09:32;;;;;;;;;;;21.20;26.00;;;;;;467928;254;1304;-39
2022/03/07 10:11:34;;;;;;;;;;;21.20;26.00;;;;;;468152;254;1332;-39
2022/03/07 10:13:35;;;;;;;;;;;21.20;26.00;;;;;;468046;254;1116;-39
2022/03/07 10:15:36;;;;;;;;;;;21.20;26.00;;;;;;468105;254;1111;-39
2022/03/07 10:17:38;;;;;;;;;;;21.20;26.10;;;;;;468153;254;1190;-39
2022/03/07 10:19:39;;;;;;;;;;;21.20;26.10;;;;;;468161;254;2208;-39
2022/03/07 10:21:40;;;;;;;;;;;21.20;26.10;;;;;;467900;254;1101;-39
2022/03/07 10:23:42;;;;;;;;;;;21.20;26.00;;;;;;467846;254;1421;-39
2022/03/07 10:25:44;;;;;;;;;;;21.30;26.00;;;;;;467955;254;1113;-39
2022/03/07 10:27:45;;;;;;;;;;;21.20;26.00;;;;;;467887;254;1951;-39
2022/03/07 10:29:46;;;;;;;;;;;21.20;26.00;;;;;;467895;254;1134;-39
2022/03/07 10:31:49;;;;;;;;;;;21.20;26.00;;;;;;467878;254;1149;-39
2022/03/07 10:33:49;;;;;;;;;;;21.20;26.00;;;;;;467943;253;1333;-39
2022/03/07 10:35:50;;;;;;;;;;;21.20;26.00;;;;;;467920;254;1087;-39
2022/03/07 10:37:52;;;;;;;;;;;21.20;26.00;;;;;;467995;254;1166;-39
2022/03/07 10:39:53;;;;;;;;;;;21.10;26.00;;;;;;468031;254;2113;-39
2022/03/07 10:41:54;;;;;;;;;;;21.20;26.00;;;;;;468032;254;1264;-39
2022/03/07 10:43:56;;;;;;;;;;;21.20;26.00;;;;;;468060;254;1203;-39
2022/03/07 10:45:57;;;;;;;;;;;21.20;26.00;;;;;;468080;254;1097;-39
2022/03/07 10:47:58;;;;;;;;;;;21.30;26.00;;;;;;468011;254;1368;-39
2022/03/07 10:50:00;;;;;;;;;;;21.30;25.90;;;;;;468107;254;1129;-39
2022/03/07 10:52:01;;;;;;;;;;;21.20;25.90;;;;;;468034;250;1185;-39
2022/03/07 10:54:02;;;;;;;;;;;21.20;26.00;;;;;;467863;254;1113;-39
2022/03/07 10:56:04;;;;;;;;;;;21.20;26.00;;;;;;467795;254;1139;-39
2022/03/07 10:58:05;;;;;;;;;;;21.20;26.00;;;;;;467686;253;1274;-39
2022/03/07 11:00:07;;;;;;;;;;;21.20;26.00;;;;;;467784;254;2204;-39
2022/03/07 11:02:09;;;;;;;;;;;21.20;26.00;;;;;;467841;254;1376;-39
2022/03/07 11:04:10;;;;;;;;;;;21.20;26.00;;;;;;468138;254;2845;-39
2022/03/07 11:06:12;;;;;;;;;;;21.20;26.00;;;;;;467939;254;1179;-39
2022/03/07 11:08:14;;;;;;;;;;;21.20;26.00;;;;;;467951;253;2510;-39
2022/03/07 11:10:14;;;;;;;;;;;21.20;25.90;;;;;;467120;254;1579;-39
2022/03/07 11:12:15;;;;;;;;;;;21.20;25.90;;;;;;467889;254;1162;-39
2022/03/07 11:14:16;;;;;;;;;;;21.20;25.90;;;;;;467972;254;1146;-39
2022/03/07 11:16:17;;;;;;;;;;;21.20;25.90;;;;;;467956;254;1177;-39
2022/03/07 11:18:19;;;;;;;;;;;21.20;25.90;;;;;;468001;254;1225;-39
2022/03/07 11:20:20;;;;;;;;;;;21.20;25.90;;;;;;467854;254;2212;-39
2022/03/07 11:22:22;;;;;;;;;;;21.20;25.90;;;;;;467862;254;1243;-39
2022/03/07 11:24:23;;;;;;;;;;;21.20;26.00;;;;;;467929;254;1102;-39
2022/03/07 11:26:26;;;;;;;;;;;21.20;26.00;;;;;;467958;254;1244;-39
2022/03/07 11:28:26;;;;;;;;;;;21.20;25.90;;;;;;468068;253;2005;-39
2022/03/07 11:30:29;;;;;;;;;;;21.20;25.90;;;;;;468057;254;1136;-39
2022/03/07 11:32:28;;;;;;;;;;;21.20;25.90;;;;;;467773;253;1937;-39
2022/03/07 11:34:30;;;;;;;;;;;21.20;25.90;;;;;;467852;254;1089;-39
2022/03/07 11:36:31;;;;;;;;;;;21.20;25.90;;;;;;467924;254;1142;-39
2022/03/07 11:38:35;;;;;;;;;;;21.20;25.90;;;;;;467866;254;2136;-39
2022/03/07 11:40:34;;;;;;;;;;;21.20;25.90;;;;;;467940;254;2131;-39
2022/03/07 11:42:36;;;;;;;;;;;21.20;25.90;;;;;;467961;254;1356;-39
2022/03/07 11:44:37;;;;;;;;;;;21.20;25.90;;;;;;468066;254;1104;-39
2022/03/07 11:46:38;;;;;;;;;;;21.20;25.80;;;;;;467878;254;1294;-39
2022/03/07 11:48:39;;;;;;;;;;;21.20;25.80;;;;;;467888;254;1185;-39
2022/03/07 11:50:41;;;;;;;;;;;21.20;25.80;;;;;;467815;254;1182;-39
2022/03/07 11:52:42;;;;;;;;;;;21.20;25.80;;;;;;467801;254;1113;-39
2022/03/07 11:54:43;;;;;;;;;;;21.20;25.80;;;;;;467852;254;1133;-39
2022/03/07 11:56:45;;;;;;;;;;;21.20;25.80;;;;;;467934;254;1214;-39
2022/03/07 11:58:46;;;;;;;;;;;21.10;25.80;;;;;;468036;254;2184;-39
2022/03/07 12:00:48;;;;;;;;;;;21.10;25.90;;;;;;467982;254;1086;-39
2022/03/07 12:02:49;;;;;;;;;;;21.10;25.80;;;;;;467975;254;1183;-39
2022/03/07 12:04:50;;;;;;;;;;;21.10;25.80;;;;;;467395;254;1103;-39
2022/03/07 12:06:52;;;;;;;;;;;21.20;25.80;;;;;;468033;254;1130;-39
2022/03/07 12:08:53;;;;;;;;;;;21.20;25.80;;;;;;468097;254;1126;-39
2022/03/07 12:10:55;;;;;;;;;;;21.20;25.80;;;;;;468139;254;1141;-39
2022/03/07 12:12:56;;;;;;;;;;;21.20;25.80;;;;;;467938;254;1219;-39
2022/03/07 12:14:57;;;;;;;;;;;21.20;25.80;;;;;;468038;254;1096;-39
2022/03/07 12:17:00;;;;;;;;;;;21.10;25.70;;;;;;467953;250;1358;-39
2022/03/07 12:19:00;;;;;;;;;;;21.20;25.80;;;;;;468397;254;2207;-39
2022/03/07 12:21:02;;;;;;;;;;;21.20;25.70;;;;;;468690;254;961;-39
2022/03/07 12:23:03;;;;;;;;;;;21.20;25.70;;;;;;468104;254;2435;-39
2022/03/07 12:25:04;;;;;;;;;;;21.20;25.70;;;;;;467900;254;946;-39
2022/03/07 12:27:05;;;;;;;;;;;21.20;25.70;;;;;;468513;254;1169;-39
2022/03/07 12:29:07;;;;;;;;;;;21.20;25.70;;;;;;468025;254;1219;-39
2022/03/07 12:31:08;;;;;;;;;;;21.20;25.70;;;;;;468069;254;1088;-39
2022/03/07 12:33:10;;;;;;;;;;;21.20;25.70;;;;;;468040;254;1117;-39
2022/03/07 12:35:11;;;;;;;;;;;21.20;25.70;;;;;;468132;254;1103;-39
2022/03/07 12:37:12;;;;;;;;;;;21.20;25.70;;;;;;468045;254;1081;-39
2022/03/07 12:39:13;;;;;;;;;;;21.10;25.60;;;;;;467882;254;2207;-39
2022/03/07 12:41:15;;;;;;;;;;;21.20;25.70;;;;;;468045;254;1258;-39
2022/03/07 12:43:16;;;;;;;;;;;21.20;25.60;;;;;;468309;254;1220;-39
2022/03/07 12:45:17;;;;;;;;;;;21.20;25.60;;;;;;467919;254;1158;-39
2022/03/07 12:47:19;;;;;;;;;;;21.20;25.60;;;;;;468031;254;1264;-39
2022/03/07 12:49:20;;;;;;;;;;;21.20;25.60;;;;;;468029;254;1119;-39
2022/03/07 12:51:22;;;;;;;;;;;21.20;25.60;;;;;;467947;254;1328;-39
2022/03/07 12:53:23;;;;;;;;;;;21.20;25.60;;;;;;468529;254;796;-39
2022/03/07 12:55:24;;;;;;;;;;;21.20;25.60;;;;;;468490;254;1255;-39
2022/03/07 12:57:26;;;;;;;;;;;21.20;25.60;;;;;;467858;254;1362;-39
2022/03/07 12:59:27;;;;;;;;;;;21.30;25.60;;;;;;467928;254;2195;-39
2022/03/07 13:01:28;;;;;;;;;;;21.20;25.60;;;;;;468030;254;1190;-39
2022/03/07 13:03:30;;;;;;;;;;;21.20;25.60;;;;;;468108;254;1188;-39
2022/03/07 13:05:31;;;;;;;;;;;21.20;25.60;;;;;;468033;254;1104;-39
2022/03/07 13:07:32;;;;;;;;;;;21.20;25.60;;;;;;467962;254;1171;-39
2022/03/07 13:09:34;;;;;;;;;;;21.20;25.60;;;;;;467868;254;1114;-39
2022/03/07 13:11:35;;;;;;;;;;;21.20;25.60;;;;;;467625;254;1173;-39
2022/03/07 13:13:36;;;;;;;;;;;21.10;25.50;;;;;;467636;254;1250;-39
2022/03/07 13:15:38;;;;;;;;;;;21.10;25.60;;;;;;467573;254;1406;-39
2022/03/07 13:17:39;;;;;;;;;;;21.20;25.60;;;;;;467805;254;1122;-39
2022/03/07 13:19:40;;;;;;;;;;;21.20;25.60;;;;;;467727;254;2141;-39
2022/03/07 13:21:42;;;;;;;;;;;21.20;25.60;;;;;;467799;254;1138;-39
2022/03/07 13:23:43;;;;;;;;;;;21.20;25.60;;;;;;467807;254;1118;-39
2022/03/07 13:25:45;;;;;;;;;;;21.10;25.50;;;;;;467842;254;1191;-39
2022/03/07 13:27:46;;;;;;;;;;;21.20;25.50;;;;;;467870;254;2072;-39
2022/03/07 13:29:47;;;;;;;;;;;21.20;25.50;;;;;;467929;254;1217;-39
2022/03/07 13:31:49;;;;;;;;;;;21.20;25.50;;;;;;467736;254;1115;-39
2022/03/07 13:33:50;;;;;;;;;;;21.20;25.50;;;;;;467756;254;1134;-39
2022/03/07 13:35:51;;;;;;;;;;;21.20;25.50;;;;;;467762;250;1141;-39
2022/03/07 13:37:53;;;;;;;;;;;21.20;25.50;;;;;;467861;254;1129;-39
2022/03/07 13:39:54;;;;;;;;;;;21.20;25.50;;;;;;467752;254;2200;-39
2022/03/07 13:41:55;;;;;;;;;;;21.20;25.50;;;;;;467551;254;1563;-39
2022/03/07 13:43:56;;;;;;;;;;;21.10;25.50;;;;;;467695;254;1172;-39
2022/03/07 13:45:58;;;;;;;;;;;21.20;25.50;;;;;;467765;254;1114;-39
2022/03/07 13:47:59;;;;;;;;;;;21.20;25.50;;;;;;467948;254;1122;-39
2022/03/07 13:50:03;;;;;;;;;;;21.10;25.40;;;;;;467965;254;1092;-39
2022/03/07 13:52:02;;;;;;;;;;;21.20;25.50;;;;;;467826;251;1341;-39
2022/03/07 13:54:03;;;;;;;;;;;21.20;25.40;;;;;;467807;254;1116;-39
2022/03/07 13:56:04;;;;;;;;;;;21.10;25.40;;;;;;467896;254;1087;-39
2022/03/07 13:58:06;;;;;;;;;;;21.20;25.50;;;;;;467805;254;1090;-39
2022/03/07 14:00:08;;;;;;;;;;;21.10;25.40;;;;;;467803;254;2200;-39
2022/03/07 14:02:08;;;;;;;;;;;21.20;25.50;;;;;;467786;253;2199;-39
2022/03/07 14:04:10;;;;;;;;;;;21.10;25.40;;;;;;467837;254;1152;-39
2022/03/07 14:06:11;;;;;;;;;;;21.20;25.40;;;;;;467702;254;1094;-39
2022/03/07 14:08:13;;;;;;;;;;;21.20;25.40;;;;;;467742;254;1100;-39
2022/03/07 14:10:14;;;;;;;;;;;21.20;25.40;;;;;;467703;254;1196;-39
2022/03/07 14:12:15;;;;;;;;;;;21.20;25.40;;;;;;467806;254;1084;-39
2022/03/07 14:14:17;;;;;;;;;;;21.20;25.40;;;;;;467798;254;1338;-39
2022/03/07 14:16:19;;;;;;;;;;;21.10;25.40;;;;;;467737;254;1104;-39
2022/03/07 14:18:20;;;;;;;;;;;21.10;25.40;;;;;;467763;254;1078;-39
2022/03/07 14:20:21;;;;;;;;;;;21.10;25.40;;;;;;467644;254;2200;-39
2022/03/07 14:22:23;;;;;;;;;;;21.10;25.40;;;;;;467646;254;1089;-39
2022/03/07 14:24:24;;;;;;;;;;;21.10;25.40;;;;;;467678;254;1241;-39
2022/03/07 14:26:26;;;;;;;;;;;21.10;25.40;;;;;;467848;254;1300;-39
2022/03/07 14:28:27;;;;;;;;;;;21.10;25.40;;;;;;468005;254;1071;-39
2022/03/07 14:30:28;;;;;;;;;;;21.20;25.40;;;;;;467885;254;1151;-39
2022/03/07 14:32:30;;;;;;;;;;;21.10;25.40;;;;;;467815;254;1273;-39
2022/03/07 14:34:31;;;;;;;;;;;21.10;25.30;;;;;;467940;254;1194;-39
2022/03/07 14:36:32;;;;;;;;;;;21.20;25.40;;;;;;467975;250;1151;-39
2022/03/07 14:38:34;;;;;;;;;;;21.10;25.30;;;;;;467941;254;1106;-39
2022/03/07 14:40:36;;;;;;;;;;;21.20;25.30;;;;;;467889;254;2137;-39
2022/03/07 14:42:37;;;;;;;;;;;21.10;25.30;;;;;;468385;253;1576;-39
2022/03/07 14:44:38;;;;;;;;;;;21.10;25.40;;;;;;468398;254;2022;-39
2022/03/07 14:46:39;;;;;;;;;;;21.10;25.40;;;;;;468040;254;1194;-38
2022/03/07 14:48:40;;;;;;;;;;;21.10;25.40;;;;;;467676;254;1024;-39
2022/03/07 14:50:42;;;;;;;;;;;21.10;25.40;;;;;;468110;254;1479;-39
2022/03/07 14:52:43;;;;;;;;;;;21.10;25.40;;;;;;468453;254;1118;-39
2022/03/07 14:54:44;;;;;;;;;;;21.10;25.40;;;;;;468217;254;1314;-39
2022/03/07 14:56:45;;;;;;;;;;;21.10;25.30;;;;;;468167;254;1141;-39
2022/03/07 14:58:47;;;;;;;;;;;21.10;25.30;;;;;;467903;254;1162;-39
2022/03/07 15:00:48;;;;;;;;;;;21.10;25.30;;;;;;467889;254;2204;-39
2022/03/07 15:02:49;;;;;;;;;;;21.10;25.30;;;;;;467842;254;1086;-39
2022/03/07 15:04:51;;;;;;;;;;;21.10;25.30;;;;;;468044;254;1095;-39
2022/03/07 15:06:52;;;;;;;;;;;21.10;25.30;;;;;;467913;254;1196;-39
2022/03/07 15:08:53;;;;;;;;;;;21.10;25.30;;;;;;467856;254;1119;-39
2022/03/07 15:10:56;;;;;;;;;;;21.10;25.30;;;;;;467824;254;1161;-39
2022/03/07 15:12:56;;;;;;;;;;;21.10;25.30;;;;;;467892;253;2098;-39
2022/03/07 15:14:57;;;;;;;;;;;21.10;25.30;;;;;;467881;254;1144;-39
2022/03/07 15:16:59;;;;;;;;;;;21.10;25.20;;;;;;468013;254;1130;-39
2022/03/07 15:19:00;;;;;;;;;;;21.10;25.20;;;;;;467965;254;1063;-39
2022/03/07 15:21:04;;;;;;;;;;;21.10;25.30;;;;;;467872;254;2212;-39
2022/03/07 15:23:04;;;;;;;;;;;21.10;25.20;;;;;;468385;253;2293;-39
2022/03/07 15:25:05;;;;;;;;;;;21.10;25.20;;;;;;468351;254;759;-39
2022/03/07 15:27:06;;;;;;;;;;;21.10;25.20;;;;;;468566;254;1085;-39
2022/03/07 15:29:08;;;;;;;;;;;21.10;25.20;;;;;;468668;254;805;-39
2022/03/07 15:31:09;;;;;;;;;;;21.10;25.20;;;;;;468283;254;1308;-39
2022/03/07 15:33:10;;;;;;;;;;;21.10;25.20;;;;;;468590;254;803;-39
2022/03/07 15:35:12;;;;;;;;;;;21.10;25.20;;;;;;468607;254;812;-39
2022/03/07 15:37:13;;;;;;;;;;;21.10;25.20;;;;;;468075;254;1111;-39
2022/03/07 15:39:14;;;;;;;;;;;21.10;25.30;;;;;;468097;254;842;-39
2022/03/07 15:41:16;;;;;;;;;;;21.10;25.20;;;;;;468159;254;2188;-39
2022/03/07 15:43:17;;;;;;;;;;;21.10;25.20;;;;;;468545;254;693;-39
2022/03/07 15:45:18;;;;;;;;;;;21.10;25.20;;;;;;468212;254;1286;-39
2022/03/07 15:47:20;;;;;;;;;;;21.10;25.20;;;;;;468613;254;1030;-39
2022/03/07 15:49:23;;;;;;;;;;;21.10;25.20;;;;;;468255;254;768;-39
2022/03/07 15:51:22;;;;;;;;;;;21.10;25.20;;;;;;468132;250;2066;-39
2022/03/07 15:53:24;;;;;;;;;;;21.10;25.20;;;;;;468610;254;840;-39
2022/03/07 15:55:25;;;;;;;;;;;21.10;25.20;;;;;;468670;254;826;-39
2022/03/07 15:57:26;;;;;;;;;;;21.10;25.20;;;;;;468490;254;1123;-39
2022/03/07 15:59:27;;;;;;;;;;;21.10;25.20;;;;;;468628;254;796;-39
2022/03/07 16:01:29;;;;;;;;;;;21.10;25.20;;;;;;468106;250;2195;-39
2022/03/07 16:03:30;;;;;;;;;;;21.10;25.20;;;;;;468110;254;871;-39
2022/03/07 16:05:31;;;;;;;;;;;21.10;25.20;;;;;;468627;254;863;-39
2022/03/07 16:07:33;;;;;;;;;;;21.10;25.20;;;;;;468683;254;1405;-39
2022/03/07 16:09:34;;;;;;;;;;;21.10;25.20;;;;;;468663;254;868;-39
2022/03/07 16:11:35;;;;;;;;;;;21.00;25.20;;;;;;468671;250;1376;-39
2022/03/07 16:13:37;;;;;;;;;;;21.00;25.30;;;;;;468543;254;736;-39
2022/03/07 16:15:38;;;;;;;;;;;21.10;25.20;;;;;;468219;254;1185;-39
2022/03/07 16:17:39;;;;;;;;;;;21.10;25.20;;;;;;468214;254;1055;-39
2022/03/07 16:19:41;;;;;;;;;;;21.10;25.30;;;;;;468290;254;774;-39
2022/03/07 16:21:42;;;;;;;;;;;21.10;25.30;;;;;;468633;254;2188;-39
2022/03/07 16:23:43;;;;;;;;;;;21.10;25.30;;;;;;468682;254;799;-39
2022/03/07 16:25:45;;;;;;;;;;;21.10;25.30;;;;;;468247;254;803;-39
2022/03/07 16:27:46;;;;;;;;;;;21.00;25.30;;;;;;468227;254;762;-39
2022/03/07 16:29:47;;;;;;;;;;;21.10;25.30;;;;;;468227;254;835;-39
2022/03/07 16:31:49;;;;;;;;;;;21.10;25.40;;;;;;468040;254;1211;-39
2022/03/07 16:33:50;;;;;;;;;;;21.00;25.40;;;;;;468513;254;957;-39
2022/03/07 16:35:53;;;;;;;;;;;21.00;25.40;;;;;;468689;254;1369;-39
2022/03/07 16:37:53;;;;;;;;;;;21.00;25.40;;;;;;468730;253;2159;-39
2022/03/07 16:39:56;;;;;;;;;;;21.10;25.40;;;;;;468769;254;694;-39
2022/03/07 16:41:56;;;;;;;;;;;21.10;25.40;;;;;;468734;254;2187;-39
2022/03/07 16:43:58;;;;;;;;;;;21.10;25.40;;;;;;468720;254;811;-39
2022/03/07 16:45:58;;;;;;;;;;;21.10;25.40;;;;;;468313;254;2147;-39
2022/03/07 16:47:59;;;;;;;;;;;21.10;25.40;;;;;;468701;254;811;-38
2022/03/07 16:50:01;;;;;;;;;;;21.10;25.40;;;;;;468688;254;810;-39
2022/03/07 16:52:02;;;;;;;;;;;21.10;25.40;;;;;;468312;254;1097;-39
2022/03/07 16:54:04;;;;;;;;;;;21.10;25.40;;;;;;468798;254;816;-39
2022/03/07 16:56:05;;;;;;;;;;;21.10;25.40;;;;;;468725;250;2061;-39
2022/03/07 16:58:06;;;;;;;;;;;21.10;25.50;;;;;;468745;254;1017;-39
2022/03/07 17:00:08;;;;;;;;;;;21.10;25.40;;;;;;468816;254;791;-39
2022/03/07 17:02:09;;;;;;;;;;;21.10;25.50;;;;;;468321;254;2196;-39
2022/03/07 17:04:11;;;;;;;;;;;21.10;25.50;;;;;;468356;254;1075;-39
2022/03/07 17:06:12;;;;;;;;;;;21.10;25.50;;;;;;468230;254;2435;-39
2022/03/07 17:08:13;;;;;;;;;;;21.10;25.50;;;;;;468100;254;1087;-39
2022/03/07 17:10:15;;;;;;;;;;;21.10;25.50;;;;;;468281;254;1620;-39
2022/03/07 17:12:16;;;;;;;;;;;21.10;25.50;;;;;;468134;254;1052;-39
2022/03/07 17:14:18;;;;;;;;;;;21.10;25.50;;;;;;468268;254;1120;-39
2022/03/07 17:16:19;;;;;;;;;;;21.10;25.50;;;;;;468276;254;1134;-39
2022/03/07 17:18:20;;;;;;;;;;;21.10;25.50;;;;;;468251;254;1056;-39
2022/03/07 17:20:22;;;;;;;;;;;21.10;25.50;;;;;;468155;254;1067;-39
2022/03/07 17:22:23;;;;;;;;;;;21.10;25.60;;;;;;468254;254;2184;-39
2022/03/07 17:24:24;;;;;;;;;;;21.10;25.60;;;;;;468382;254;1069;-39
2022/03/07 17:26:26;;;;;;;;;;;21.10;25.60;;;;;;468330;254;1311;-39
2022/03/07 17:28:27;;;;;;;;;;;21.10;25.60;;;;;;468430;254;1119;-39
2022/03/07 17:30:28;;;;;;;;;;;21.10;25.60;;;;;;468412;254;1107;-39
2022/03/07 17:32:30;;;;;;;;;;;21.10;25.60;;;;;;468487;254;1189;-39
2022/03/07 17:34:31;;;;;;;;;;;21.10;25.60;;;;;;468460;254;1128;-39
2022/03/07 17:36:32;;;;;;;;;;;21.00;25.60;;;;;;468586;254;1245;-39
2022/03/07 17:38:34;;;;;;;;;;;21.10;25.60;;;;;;468656;254;1095;-39
2022/03/07 17:40:36;;;;;;;;;;;21.00;25.60;;;;;;468581;254;2145;-39
2022/03/07 17:42:37;;;;;;;;;;;21.00;25.60;;;;;;468457;254;1163;-39
2022/03/07 17:44:38;;;;;;;;;;;21.00;25.70;;;;;;468573;254;1074;-39
2022/03/07 17:46:40;;;;;;;;;;;21.00;25.70;;;;;;468649;254;1303;-39
2022/03/07 17:48:41;;;;;;;;;;;21.00;25.60;;;;;;468850;254;1071;-39
2022/03/07 17:50:42;;;;;;;;;;;21.10;25.60;;;;;;468740;254;1100;-39
2022/03/07 17:52:44;;;;;;;;;;;21.00;25.60;;;;;;468474;254;1110;-39
2022/03/07 17:54:45;;;;;;;;;;;21.00;25.70;;;;;;468552;254;1134;-39
2022/03/07 17:56:47;;;;;;;;;;;21.00;25.70;;;;;;468539;254;1129;-39
2022/03/07 17:58:48;;;;;;;;;;;21.00;25.60;;;;;;468596;254;1173;-39
2022/03/07 18:00:50;;;;;;;;;;;21.00;25.60;;;;;;468557;254;2125;-39
2022/03/07 18:02:51;;;;;;;;;;;21.10;25.70;;;;;;468487;254;2104;-39
2022/03/07 18:04:53;;;;;;;;;;;21.10;25.70;;;;;;468598;254;1069;-39
2022/03/07 18:06:54;;;;;;;;;;;21.10;25.70;;;;;;468631;254;2502;-39
2022/03/07 18:08:55;;;;;;;;;;;21.10;25.60;;;;;;468935;254;1136;-39
2022/03/07 18:10:56;;;;;;;;;;;21.10;25.60;;;;;;468694;254;1132;-39
2022/03/07 18:12:57;;;;;;;;;;;21.10;25.70;;;;;;468640;254;1082;-39
2022/03/07 18:14:59;;;;;;;;;;;21.10;25.70;;;;;;468654;254;1218;-39
2022/03/07 18:17:00;;;;;;;;;;;21.10;25.70;;;;;;468872;254;1599;-39
2022/03/07 18:19:02;;;;;;;;;;;21.00;25.70;;;;;;469001;254;1135;-39
2022/03/07 18:21:03;;;;;;;;;;;21.10;25.70;;;;;;468932;254;2193;-39
2022/03/07 18:23:04;;;;;;;;;;;21.00;25.70;;;;;;468684;254;1132;-39
2022/03/07 18:25:06;;;;;;;;;;;21.00;25.70;;;;;;468917;254;1051;-39
2022/03/07 18:27:07;;;;;;;;;;;21.00;25.70;;;;;;468619;254;1062;-39
2022/03/07 18:29:08;;;;;;;;;;;21.00;25.70;;;;;;468713;254;1118;-39
2022/03/07 18:31:10;;;;;;;;;;;21.00;25.70;;;;;;468936;254;1118;-39
2022/03/07 18:33:11;;;;;;;;;;;21.10;25.70;;;;;;468686;254;1207;-39
2022/03/07 18:35:12;;;;;;;;;;;21.10;25.70;;;;;;468877;254;1077;-39
2022/03/07 18:37:17;;;;;;;;;;;21.10;25.70;;;;;;468570;254;1272;-39
2022/03/07 18:39:15;;;;;;;;;;;21.10;25.70;;;;;;469006;253;2250;-39
2022/03/07 18:41:16;;;;;;;;;;;21.10;25.70;;;;;;468928;254;2440;-39
2022/03/07 18:43:18;;;;;;;;;;;21.10;25.70;;;;;;468667;254;1145;-39
2022/03/07 18:45:19;;;;;;;;;;;21.10;25.70;;;;;;468684;254;1118;-39
2022/03/07 18:47:20;;;;;;;;;;;21.10;25.70;;;;;;468934;254;1253;-39
2022/03/07 18:49:22;;;;;;;;;;;21.00;25.70;;;;;;468965;254;1053;-39
2022/03/07 18:51:23;;;;;;;;;;;21.00;25.70;;;;;;469016;254;1115;-39
2022/03/07 18:53:24;;;;;;;;;;;21.00;25.80;;;;;;468692;254;1087;-39
2022/03/07 18:55:26;;;;;;;;;;;21.00;25.80;;;;;;469077;254;1109;-39
2022/03/07 18:57:27;;;;;;;;;;;21.00;25.80;;;;;;468749;254;2095;-39
2022/03/07 18:59:29;;;;;;;;;;;21.00;25.80;;;;;;468729;254;1105;-39
2022/03/07 19:01:30;;;;;;;;;;;21.00;25.80;;;;;;469031;253;2455;-39
2022/03/07 19:03:31;;;;;;;;;;;21.00;25.70;;;;;;468773;254;1163;-39
2022/03/07 19:05:33;;;;;;;;;;;21.00;25.80;;;;;;468798;254;1121;-39
2022/03/07 19:07:34;;;;;;;;;;;21.10;25.80;;;;;;468713;254;1118;-39